sensor_id;sensor_type;location;lat;lon;timestamp;temperature;humidity
16313;DHT22;8265;52.622;13.296;2023-02-10T00:04:50;-0.60;75.00
16313;DHT22;8265;52.622;13.296;2023-02-10T00:10:11;-0.60;74.90
16313;DHT22;8265;52.622;13.296;2023-02-10T00:15:32;-0.60;74.70
16313;DHT22;8265;52.622;13.296;2023-02-10T00:20:53;-0.60;74.70
16313;DHT22;8265;52.622;13.296;2023-02-10T00:26:13;-0.50;74.30
16313;DHT22;8265;52.622;13.296;2023-02-10T00:31:34;-0.50;74.50
16313;DHT22;8265;52.622;13.296;2023-02-10T00:36:56;-0.60;74.80
16313;DHT22;8265;52.622;13.296;2023-02-10T00:42:16;-0.40;74.40
16313;DHT22;8265;52.622;13.296;2023-02-10T00:47:38;-0.20;73.90
16313;DHT22;8265;52.622;13.296;2023-02-10T00:52:58;-0.20;74.10
16313;DHT22;8265;52.622;13.296;2023-02-10T00:58:19;-0.30;74.10
16313;DHT22;8265;52.622;13.296;2023-02-10T01:03:40;-0.40;74.50
16313;DHT22;8265;52.622;13.296;2023-02-10T01:09:01;-0.70;75.40
16313;DHT22;8265;52.622;13.296;2023-02-10T01:14:22;-1.00;76.30
16313;DHT22;8265;52.622;13.296;2023-02-10T01:19:43;-1.10;77.60
16313;DHT22;8265;52.622;13.296;2023-02-10T01:25:04;-1.30;78.20
16313;DHT22;8265;52.622;13.296;2023-02-10T01:30:25;-1.30;79.00
16313;DHT22;8265;52.622;13.296;2023-02-10T01:35:46;-1.50;79.30
16313;DHT22;8265;52.622;13.296;2023-02-10T01:41:07;-1.70;80.30
16313;DHT22;8265;52.622;13.296;2023-02-10T01:46:29;-1.90;80.90
16313;DHT22;8265;52.622;13.296;2023-02-10T01:51:54;-2.10;82.10
16313;DHT22;8265;52.622;13.296;2023-02-10T01:57:10;-2.40;83.00
16313;DHT22;8265;52.622;13.296;2023-02-10T02:02:31;-2.50;83.60
16313;DHT22;8265;52.622;13.296;2023-02-10T02:07:52;-2.40;83.70
16313;DHT22;8265;52.622;13.296;2023-02-10T02:18:36;-2.40;84.60
16313;DHT22;8265;52.622;13.296;2023-02-10T02:29:22;-2.20;84.20
16313;DHT22;8265;52.622;13.296;2023-02-10T02:34:58;-2.20;83.60
16313;DHT22;8265;52.622;13.296;2023-02-10T02:39:58;-2.30;84.20
16313;DHT22;8265;52.622;13.296;2023-02-10T02:45:32;-2.30;84.30
16313;DHT22;8265;52.622;13.296;2023-02-10T02:56:11;-2.40;85.00
16313;DHT22;8265;52.622;13.296;2023-02-10T03:01:29;-2.50;84.80
16313;DHT22;8265;52.622;13.296;2023-02-10T03:06:43;-2.60;85.30
16313;DHT22;8265;52.622;13.296;2023-02-10T03:12:04;-2.40;85.90
16313;DHT22;8265;52.622;13.296;2023-02-10T03:17:25;-2.00;85.80
16313;DHT22;8265;52.622;13.296;2023-02-10T03:22:46;-1.80;85.00
16313;DHT22;8265;52.622;13.296;2023-02-10T03:28:07;-1.60;84.60
16313;DHT22;8265;52.622;13.296;2023-02-10T03:33:28;-1.50;84.30
16313;DHT22;8265;52.622;13.296;2023-02-10T03:38:49;-1.30;83.80
16313;DHT22;8265;52.622;13.296;2023-02-10T03:44:10;-1.10;83.20
16313;DHT22;8265;52.622;13.296;2023-02-10T03:49:31;-1.00;82.80
16313;DHT22;8265;52.622;13.296;2023-02-10T03:54:52;-0.90;82.80
16313;DHT22;8265;52.622;13.296;2023-02-10T04:00:13;-0.80;82.90
16313;DHT22;8265;52.622;13.296;2023-02-10T04:05:34;-0.70;83.00
16313;DHT22;8265;52.622;13.296;2023-02-10T05:54:53;-0.70;83.40
16313;DHT22;8265;52.622;13.296;2023-02-10T06:00:15;-1.20;90.30
16313;DHT22;8265;52.622;13.296;2023-02-10T06:08:26;-1.30;90.60
16313;DHT22;8265;52.622;13.296;2023-02-10T06:13:47;-1.30;91.60
16313;DHT22;8265;52.622;13.296;2023-02-10T06:19:08;-1.30;91.50
16313;DHT22;8265;52.622;13.296;2023-02-10T06:24:29;-1.30;92.00
16313;DHT22;8265;52.622;13.296;2023-02-10T06:49:02;-1.30;92.10
16313;DHT22;8265;52.622;13.296;2023-02-10T06:54:23;-0.90;90.60
16313;DHT22;8265;52.622;13.296;2023-02-10T06:59:44;-1.10;91.70
16313;DHT22;8265;52.622;13.296;2023-02-10T07:05:06;-1.10;92.30
16313;DHT22;8265;52.622;13.296;2023-02-10T07:10:26;-1.00;92.20
16313;DHT22;8265;52.622;13.296;2023-02-10T07:15:47;-0.90;92.20
16313;DHT22;8265;52.622;13.296;2023-02-10T07:21:08;-0.70;91.80
16313;DHT22;8265;52.622;13.296;2023-02-10T07:26:29;-0.50;91.70
16313;DHT22;8265;52.622;13.296;2023-02-10T07:31:50;-0.40;91.00
16313;DHT22;8265;52.622;13.296;2023-02-10T07:37:11;-0.30;91.20
16313;DHT22;8265;52.622;13.296;2023-02-10T07:42:32;-0.10;90.20
16313;DHT22;8265;52.622;13.296;2023-02-10T07:47:53;-0.10;90.20
16313;DHT22;8265;52.622;13.296;2023-02-10T07:53:14;-0.10;90.10
16313;DHT22;8265;52.622;13.296;2023-02-10T07:58:36;0.00;90.00
16313;DHT22;8265;52.622;13.296;2023-02-10T08:03:56;0.20;89.60
16313;DHT22;8265;52.622;13.296;2023-02-10T08:09:17;0.40;89.00
16313;DHT22;8265;52.622;13.296;2023-02-10T08:14:38;0.50;88.90
16313;DHT22;8265;52.622;13.296;2023-02-10T08:19:59;0.80;88.10
16313;DHT22;8265;52.622;13.296;2023-02-10T08:25:20;1.00;87.30
16313;DHT22;8265;52.622;13.296;2023-02-10T08:30:41;1.20;86.90
16313;DHT22;8265;52.622;13.296;2023-02-10T08:36:05;1.40;86.30
16313;DHT22;8265;52.622;13.296;2023-02-10T08:41:23;1.60;85.70
16313;DHT22;8265;52.622;13.296;2023-02-10T08:46:43;1.70;85.50
16313;DHT22;8265;52.622;13.296;2023-02-10T08:52:04;1.90;84.90
16313;DHT22;8265;52.622;13.296;2023-02-10T08:57:25;2.00;84.80
16313;DHT22;8265;52.622;13.296;2023-02-10T09:02:48;2.30;84.30
16313;DHT22;8265;52.622;13.296;2023-02-10T09:08:07;2.40;83.50
16313;DHT22;8265;52.622;13.296;2023-02-10T09:13:28;2.30;83.90
16313;DHT22;8265;52.622;13.296;2023-02-10T09:18:49;2.30;84.20
16313;DHT22;8265;52.622;13.296;2023-02-10T09:24:10;2.30;84.30
16313;DHT22;8265;52.622;13.296;2023-02-10T09:29:31;2.20;84.80
16313;DHT22;8265;52.622;13.296;2023-02-10T09:34:52;2.30;84.40
16313;DHT22;8265;52.622;13.296;2023-02-10T09:40:27;2.40;84.50
16313;DHT22;8265;52.622;13.296;2023-02-10T09:45:35;2.60;83.90
16313;DHT22;8265;52.622;13.296;2023-02-10T09:51:15;2.80;83.50
16313;DHT22;8265;52.622;13.296;2023-02-10T09:56:17;3.00;83.20
16313;DHT22;8265;52.622;13.296;2023-02-10T10:01:41;3.10;82.50
16313;DHT22;8265;52.622;13.296;2023-02-10T10:07:03;3.30;82.00
16313;DHT22;8265;52.622;13.296;2023-02-10T10:12:19;3.30;82.30
16313;DHT22;8265;52.622;13.296;2023-02-10T10:18:01;3.30;82.50
16313;DHT22;8265;52.622;13.296;2023-02-10T10:33:49;3.30;82.60
16313;DHT22;8265;52.622;13.296;2023-02-10T10:39:14;3.30;82.80
16313;DHT22;8265;52.622;13.296;2023-02-10T10:44:25;3.50;82.50
16313;DHT22;8265;52.622;13.296;2023-02-10T10:49:46;3.80;81.50
16313;DHT22;8265;52.622;13.296;2023-02-10T10:55:17;3.70;82.10
16313;DHT22;8265;52.622;13.296;2023-02-10T11:00:28;4.00;81.00
16313;DHT22;8265;52.622;13.296;2023-02-10T11:05:59;4.20;80.60
16313;DHT22;8265;52.622;13.296;2023-02-10T11:11:11;4.30;80.30
16313;DHT22;8265;52.622;13.296;2023-02-10T11:16:31;4.40;80.00
16313;DHT22;8265;52.622;13.296;2023-02-10T11:21:52;4.30;80.00
16313;DHT22;8265;52.622;13.296;2023-02-10T11:27:13;4.20;80.60
16313;DHT22;8265;52.622;13.296;2023-02-10T11:32:34;4.20;80.60
16313;DHT22;8265;52.622;13.296;2023-02-10T11:37:55;4.20;80.50
16313;DHT22;8265;52.622;13.296;2023-02-10T11:43:15;4.60;79.20
16313;DHT22;8265;52.622;13.296;2023-02-10T11:48:36;5.00;78.30
16313;DHT22;8265;52.622;13.296;2023-02-10T11:53:58;5.50;77.00
16313;DHT22;8265;52.622;13.296;2023-02-10T11:59:44;5.60;75.70
16313;DHT22;8265;52.622;13.296;2023-02-10T12:15:37;4.90;78.00
16313;DHT22;8265;52.622;13.296;2023-02-10T12:47:54;5.60;75.80
16313;DHT22;8265;52.622;13.296;2023-02-10T12:52:54;5.60;76.00
16313;DHT22;8265;52.622;13.296;2023-02-10T12:58:25;5.30;76.80
16313;DHT22;8265;52.622;13.296;2023-02-10T13:03:31;5.40;76.50
16313;DHT22;8265;52.622;13.296;2023-02-10T13:14:14;5.00;77.40
16313;DHT22;8265;52.622;13.296;2023-02-10T13:25:07;5.00;77.60
16313;DHT22;8265;52.622;13.296;2023-02-10T13:35:36;4.90;78.20
16313;DHT22;8265;52.622;13.296;2023-02-10T13:40:57;5.00;78.40
16313;DHT22;8265;52.622;13.296;2023-02-10T13:46:30;5.00;78.50
16313;DHT22;8265;52.622;13.296;2023-02-10T13:51:39;5.00;78.40
16313;DHT22;8265;52.622;13.296;2023-02-10T13:57:00;4.90;78.50
16313;DHT22;8265;52.622;13.296;2023-02-10T14:02:22;5.10;78.20
16313;DHT22;8265;52.622;13.296;2023-02-10T14:07:42;5.50;76.90
16313;DHT22;8265;52.622;13.296;2023-02-10T14:13:19;5.40;76.90
16313;DHT22;8265;52.622;13.296;2023-02-10T14:18:31;5.70;76.70
16313;DHT22;8265;52.622;13.296;2023-02-10T14:23:54;5.80;75.80
16313;DHT22;8265;52.622;13.296;2023-02-10T14:29:08;6.00;75.10
16313;DHT22;8265;52.622;13.296;2023-02-10T14:34:30;5.60;75.90
16313;DHT22;8265;52.622;13.296;2023-02-10T14:45:21;5.40;76.70
16313;DHT22;8265;52.622;13.296;2023-02-10T14:50:33;5.30;76.90
16313;DHT22;8265;52.622;13.296;2023-02-10T14:55:54;5.30;76.70
16313;DHT22;8265;52.622;13.296;2023-02-10T15:01:22;5.00;77.60
16313;DHT22;8265;52.622;13.296;2023-02-10T15:06:32;4.70;78.20
16313;DHT22;8265;52.622;13.296;2023-02-10T15:11:54;4.50;79.00
16313;DHT22;8265;52.622;13.296;2023-02-10T15:17:15;4.50;79.10
16313;DHT22;8265;52.622;13.296;2023-02-10T15:22:39;4.40;79.50
16313;DHT22;8265;52.622;13.296;2023-02-10T15:27:57;4.10;80.10
16313;DHT22;8265;52.622;13.296;2023-02-10T15:33:18;4.10;80.60
16313;DHT22;8265;52.622;13.296;2023-02-10T15:44:00;4.10;80.80
16313;DHT22;8265;52.622;13.296;2023-02-10T15:49:21;4.00;81.00
16313;DHT22;8265;52.622;13.296;2023-02-10T15:54:41;4.10;80.80
16313;DHT22;8265;52.622;13.296;2023-02-10T16:00:02;4.10;80.80
16313;DHT22;8265;52.622;13.296;2023-02-10T16:05:23;4.00;81.00
16313;DHT22;8265;52.622;13.296;2023-02-10T16:10:44;3.90;81.60
16313;DHT22;8265;52.622;13.296;2023-02-10T16:16:07;3.70;82.10
16313;DHT22;8265;52.622;13.296;2023-02-10T16:21:26;3.50;82.60
16313;DHT22;8265;52.622;13.296;2023-02-10T16:26:47;3.30;83.20
16313;DHT22;8265;52.622;13.296;2023-02-10T16:32:08;3.10;84.00
16313;DHT22;8265;52.622;13.296;2023-02-10T16:37:29;3.10;84.50
16313;DHT22;8265;52.622;13.296;2023-02-10T16:42:50;2.90;85.20
16313;DHT22;8265;52.622;13.296;2023-02-10T16:48:11;2.90;85.50
16313;DHT22;8265;52.622;13.296;2023-02-10T16:53:32;2.80;85.90
16313;DHT22;8265;52.622;13.296;2023-02-10T16:58:53;2.90;85.90
16313;DHT22;8265;52.622;13.296;2023-02-10T17:04:14;2.80;86.20
16313;DHT22;8265;52.622;13.296;2023-02-10T17:09:35;2.90;86.20
16313;DHT22;8265;52.622;13.296;2023-02-10T17:14:56;2.90;86.10
16313;DHT22;8265;52.622;13.296;2023-02-10T17:20:27;2.70;86.60
16313;DHT22;8265;52.622;13.296;2023-02-10T17:25:38;2.80;86.60
16313;DHT22;8265;52.622;13.296;2023-02-10T17:30:59;2.90;86.40
16313;DHT22;8265;52.622;13.296;2023-02-10T17:36:22;3.00;86.10
16313;DHT22;8265;52.622;13.296;2023-02-10T17:41:41;3.00;86.10
16313;DHT22;8265;52.622;13.296;2023-02-10T17:47:02;3.10;85.70
16313;DHT22;8265;52.622;13.296;2023-02-10T17:52:23;3.10;85.20
16313;DHT22;8265;52.622;13.296;2023-02-10T17:57:44;3.10;85.40
16313;DHT22;8265;52.622;13.296;2023-02-10T18:03:05;3.10;85.20
16313;DHT22;8265;52.622;13.296;2023-02-10T18:08:26;3.10;84.70
16313;DHT22;8265;52.622;13.296;2023-02-10T18:13:47;3.00;84.90
16313;DHT22;8265;52.622;13.296;2023-02-10T18:19:08;2.90;85.20
16313;DHT22;8265;52.622;13.296;2023-02-10T18:24:29;2.80;85.40
16313;DHT22;8265;52.622;13.296;2023-02-10T18:29:50;2.80;85.20
16313;DHT22;8265;52.622;13.296;2023-02-10T18:35:11;2.80;85.00
16313;DHT22;8265;52.622;13.296;2023-02-10T18:40:33;2.80;84.70
16313;DHT22;8265;52.622;13.296;2023-02-10T18:45:54;2.80;84.00
16313;DHT22;8265;52.622;13.296;2023-02-10T18:51:14;2.90;83.70
16313;DHT22;8265;52.622;13.296;2023-02-10T18:56:35;2.80;83.80
16313;DHT22;8265;52.622;13.296;2023-02-10T19:01:56;2.80;83.60
16313;DHT22;8265;52.622;13.296;2023-02-10T19:07:31;2.70;83.40
16313;DHT22;8265;52.622;13.296;2023-02-10T19:12:51;2.60;83.60
16313;DHT22;8265;52.622;13.296;2023-02-10T19:18:12;2.60;83.30
16313;DHT22;8265;52.622;13.296;2023-02-10T19:23:33;2.80;82.60
16313;DHT22;8265;52.622;13.296;2023-02-10T19:28:54;2.80;82.40
16313;DHT22;8265;52.622;13.296;2023-02-10T19:34:15;2.80;82.10
16313;DHT22;8265;52.622;13.296;2023-02-10T19:39:37;2.80;82.00
16313;DHT22;8265;52.622;13.296;2023-02-10T19:44:57;2.80;81.50
16313;DHT22;8265;52.622;13.296;2023-02-10T19:50:18;2.80;81.50
16313;DHT22;8265;52.622;13.296;2023-02-10T19:55:39;2.80;81.70
16313;DHT22;8265;52.622;13.296;2023-02-10T20:01:01;2.70;82.10
16313;DHT22;8265;52.622;13.296;2023-02-10T20:06:29;2.70;82.40
16313;DHT22;8265;52.622;13.296;2023-02-10T20:11:42;2.60;82.50
16313;DHT22;8265;52.622;13.296;2023-02-10T20:17:06;2.50;83.00
16313;DHT22;8265;52.622;13.296;2023-02-10T20:22:24;2.30;83.20
16313;DHT22;8265;52.622;13.296;2023-02-10T20:27:45;2.40;82.90
16313;DHT22;8265;52.622;13.296;2023-02-10T20:33:06;2.30;82.90
16313;DHT22;8265;52.622;13.296;2023-02-10T20:38:27;2.20;83.20
16313;DHT22;8265;52.622;13.296;2023-02-10T20:43:48;2.10;83.00
16313;DHT22;8265;52.622;13.296;2023-02-10T20:49:09;2.00;83.40
16313;DHT22;8265;52.622;13.296;2023-02-10T20:54:30;2.00;83.20
16313;DHT22;8265;52.622;13.296;2023-02-10T20:59:51;1.90;83.50
16313;DHT22;8265;52.622;13.296;2023-02-10T21:05:12;2.00;82.70
16313;DHT22;8265;52.622;13.296;2023-02-10T21:10:33;2.00;82.70
16313;DHT22;8265;52.622;13.296;2023-02-10T21:15:54;2.00;82.80
16313;DHT22;8265;52.622;13.296;2023-02-10T21:21:15;2.00;82.40
16313;DHT22;8265;52.622;13.296;2023-02-10T21:26:35;2.00;82.10
16313;DHT22;8265;52.622;13.296;2023-02-10T21:31:56;2.10;81.70
16313;DHT22;8265;52.622;13.296;2023-02-10T21:37:17;2.00;81.60
16313;DHT22;8265;52.622;13.296;2023-02-10T21:42:38;2.00;81.30
16313;DHT22;8265;52.622;13.296;2023-02-10T21:47:59;1.90;81.30
16313;DHT22;8265;52.622;13.296;2023-02-10T21:53:20;1.90;81.40
16313;DHT22;8265;52.622;13.296;2023-02-10T21:58:41;1.80;81.50
16313;DHT22;8265;52.622;13.296;2023-02-10T22:04:03;1.80;81.60
16313;DHT22;8265;52.622;13.296;2023-02-10T22:09:23;1.70;81.90
16313;DHT22;8265;52.622;13.296;2023-02-10T22:14:44;1.80;81.10
16313;DHT22;8265;52.622;13.296;2023-02-10T22:20:05;1.80;81.10
16313;DHT22;8265;52.622;13.296;2023-02-10T22:25:26;1.80;80.90
16313;DHT22;8265;52.622;13.296;2023-02-10T22:30:47;1.90;80.50
16313;DHT22;8265;52.622;13.296;2023-02-10T22:36:09;1.80;80.30
16313;DHT22;8265;52.622;13.296;2023-02-10T22:41:29;1.80;80.60
16313;DHT22;8265;52.622;13.296;2023-02-10T22:46:50;1.80;80.50
16313;DHT22;8265;52.622;13.296;2023-02-10T22:52:11;1.80;80.40
16313;DHT22;8265;52.622;13.296;2023-02-10T22:57:35;1.80;80.40
16313;DHT22;8265;52.622;13.296;2023-02-10T23:02:57;1.80;80.00
16313;DHT22;8265;52.622;13.296;2023-02-10T23:08:14;1.80;80.00
16313;DHT22;8265;52.622;13.296;2023-02-10T23:13:35;1.80;79.90
16313;DHT22;8265;52.622;13.296;2023-02-10T23:18:56;1.80;80.20
16313;DHT22;8265;52.622;13.296;2023-02-10T23:24:17;1.70;80.10
16313;DHT22;8265;52.622;13.296;2023-02-10T23:29:38;1.80;80.00
16313;DHT22;8265;52.622;13.296;2023-02-10T23:34:59;1.80;80.20
16313;DHT22;8265;52.622;13.296;2023-02-10T23:40:19;1.80;80.10
16313;DHT22;8265;52.622;13.296;2023-02-10T23:45:41;1.80;80.00
16313;DHT22;8265;52.622;13.296;2023-02-10T23:51:15;1.80;80.20
16313;DHT22;8265;52.622;13.296;2023-02-10T23:56:23;1.80;80.20
